sensor_id;sensor_type;location;lat;lon;timestamp;P1;durP1;ratioP1;P2;durP2;ratioP2
2201;SDS011;1107;48.654;9.250;2023-04-28T00:00:32;10.37;;;6.57;;
2201;SDS011;1107;48.654;9.250;2023-04-28T00:02:59;7.63;;;7.13;;
2201;SDS011;1107;48.654;9.250;2023-04-28T00:05:26;7.20;;;6.60;;
2201;SDS011;1107;48.654;9.250;2023-04-28T00:07:53;6.77;;;6.20;;
2201;SDS011;1107;48.654;9.250;2023-04-28T00:10:20;13.83;;;7.10;;
2201;SDS011;1107;48.654;9.250;2023-04-28T00:12:47;8.27;;;7.30;;
2201;SDS011;1107;48.654;9.250;2023-04-28T00:15:14;6.67;;;6.37;;
2201;SDS011;1107;48.654;9.250;2023-04-28T00:17:42;6.93;;;6.30;;
2201;SDS011;1107;48.654;9.250;2023-04-28T00:20:10;7.07;;;6.47;;
2201;SDS011;1107;48.654;9.250;2023-04-28T00:22:37;6.73;;;6.33;;
2201;SDS011;1107;48.654;9.250;2023-04-28T00:25:04;13.40;;;6.67;;
2201;SDS011;1107;48.654;9.250;2023-04-28T00:27:32;8.90;;;6.93;;
2201;SDS011;1107;48.654;9.250;2023-04-28T00:29:59;7.60;;;7.10;;
2201;SDS011;1107;48.654;9.250;2023-04-28T00:32:26;7.40;;;6.90;;
2201;SDS011;1107;48.654;9.250;2023-04-28T00:34:55;7.80;;;7.30;;
2201;SDS011;1107;48.654;9.250;2023-04-28T00:37:22;6.50;;;6.20;;
2201;SDS011;1107;48.654;9.250;2023-04-28T00:39:53;6.50;;;6.00;;
2201;SDS011;1107;48.654;9.250;2023-04-28T00:42:20;6.93;;;6.30;;
2201;SDS011;1107;48.654;9.250;2023-04-28T00:44:48;6.53;;;5.70;;
2201;SDS011;1107;48.654;9.250;2023-04-28T00:47:15;6.27;;;5.90;;
2201;SDS011;1107;48.654;9.250;2023-04-28T00:49:43;6.70;;;6.30;;
2201;SDS011;1107;48.654;9.250;2023-04-28T00:52:13;7.00;;;6.37;;
2201;SDS011;1107;48.654;9.250;2023-04-28T00:54:40;6.80;;;6.40;;
2201;SDS011;1107;48.654;9.250;2023-04-28T00:57:08;6.23;;;5.87;;
2201;SDS011;1107;48.654;9.250;2023-04-28T00:59:35;5.60;;;5.23;;
2201;SDS011;1107;48.654;9.250;2023-04-28T01:02:02;5.53;;;5.23;;
2201;SDS011;1107;48.654;9.250;2023-04-28T01:04:30;5.70;;;5.40;;
2201;SDS011;1107;48.654;9.250;2023-04-28T01:06:57;8.23;;;4.53;;
2201;SDS011;1107;48.654;9.250;2023-04-28T01:09:28;6.23;;;4.93;;
2201;SDS011;1107;48.654;9.250;2023-04-28T01:11:55;4.93;;;4.70;;
2201;SDS011;1107;48.654;9.250;2023-04-28T01:14:22;4.63;;;4.23;;
2201;SDS011;1107;48.654;9.250;2023-04-28T01:16:49;4.63;;;4.30;;
2201;SDS011;1107;48.654;9.250;2023-04-28T01:19:19;6.90;;;4.20;;
2201;SDS011;1107;48.654;9.250;2023-04-28T01:21:47;4.80;;;4.50;;
2201;SDS011;1107;48.654;9.250;2023-04-28T01:24:15;4.43;;;4.13;;
2201;SDS011;1107;48.654;9.250;2023-04-28T01:26:43;7.83;;;4.87;;
2201;SDS011;1107;48.654;9.250;2023-04-28T01:29:10;4.03;;;3.83;;
2201;SDS011;1107;48.654;9.250;2023-04-28T01:31:37;6.20;;;3.83;;
2201;SDS011;1107;48.654;9.250;2023-04-28T01:34:04;4.40;;;4.20;;
2201;SDS011;1107;48.654;9.250;2023-04-28T01:36:31;4.90;;;3.90;;
2201;SDS011;1107;48.654;9.250;2023-04-28T01:38:58;7.20;;;4.17;;
2201;SDS011;1107;48.654;9.250;2023-04-28T01:41:26;3.80;;;3.60;;
2201;SDS011;1107;48.654;9.250;2023-04-28T01:43:53;5.60;;;4.17;;
2201;SDS011;1107;48.654;9.250;2023-04-28T01:46:20;4.30;;;3.80;;
2201;SDS011;1107;48.654;9.250;2023-04-28T01:48:47;4.50;;;4.20;;
2201;SDS011;1107;48.654;9.250;2023-04-28T01:51:14;4.53;;;4.23;;
2201;SDS011;1107;48.654;9.250;2023-04-28T01:53:41;5.17;;;4.87;;
2201;SDS011;1107;48.654;9.250;2023-04-28T01:56:08;4.70;;;4.30;;
2201;SDS011;1107;48.654;9.250;2023-04-28T01:58:36;4.57;;;4.27;;
2201;SDS011;1107;48.654;9.250;2023-04-28T02:01:03;4.60;;;4.30;;
2201;SDS011;1107;48.654;9.250;2023-04-28T02:03:30;5.00;;;4.70;;
2201;SDS011;1107;48.654;9.250;2023-04-28T02:05:57;4.67;;;4.37;;
2201;SDS011;1107;48.654;9.250;2023-04-28T02:08:24;7.93;;;4.10;;
2201;SDS011;1107;48.654;9.250;2023-04-28T02:10:51;4.63;;;4.33;;
2201;SDS011;1107;48.654;9.250;2023-04-28T02:13:18;5.10;;;4.80;;
2201;SDS011;1107;48.654;9.250;2023-04-28T02:15:46;4.80;;;4.50;;
2201;SDS011;1107;48.654;9.250;2023-04-28T02:18:13;4.47;;;4.17;;
2201;SDS011;1107;48.654;9.250;2023-04-28T02:20:40;4.00;;;3.80;;
2201;SDS011;1107;48.654;9.250;2023-04-28T02:23:07;3.60;;;3.40;;
2201;SDS011;1107;48.654;9.250;2023-04-28T02:25:34;4.63;;;4.33;;
2201;SDS011;1107;48.654;9.250;2023-04-28T02:28:01;6.77;;;4.07;;
2201;SDS011;1107;48.654;9.250;2023-04-28T02:30:28;4.90;;;4.50;;
2201;SDS011;1107;48.654;9.250;2023-04-28T02:32:56;3.70;;;3.50;;
2201;SDS011;1107;48.654;9.250;2023-04-28T02:35:23;3.60;;;3.30;;
2201;SDS011;1107;48.654;9.250;2023-04-28T02:37:50;4.93;;;4.63;;
2201;SDS011;1107;48.654;9.250;2023-04-28T02:40:17;4.47;;;4.17;;
2201;SDS011;1107;48.654;9.250;2023-04-28T02:42:45;4.60;;;4.30;;
2201;SDS011;1107;48.654;9.250;2023-04-28T02:45:12;4.90;;;4.60;;
2201;SDS011;1107;48.654;9.250;2023-04-28T02:47:39;4.40;;;4.10;;
2201;SDS011;1107;48.654;9.250;2023-04-28T02:50:08;4.67;;;4.37;;
2201;SDS011;1107;48.654;9.250;2023-04-28T02:52:35;4.93;;;4.63;;
2201;SDS011;1107;48.654;9.250;2023-04-28T02:55:02;4.93;;;4.63;;
2201;SDS011;1107;48.654;9.250;2023-04-28T02:57:29;4.47;;;4.17;;
2201;SDS011;1107;48.654;9.250;2023-04-28T02:59:56;5.63;;;4.93;;
2201;SDS011;1107;48.654;9.250;2023-04-28T03:02:23;4.53;;;4.33;;
2201;SDS011;1107;48.654;9.250;2023-04-28T03:04:50;5.13;;;4.50;;
2201;SDS011;1107;48.654;9.250;2023-04-28T03:07:18;4.90;;;4.50;;
2201;SDS011;1107;48.654;9.250;2023-04-28T03:09:45;4.57;;;4.27;;
2201;SDS011;1107;48.654;9.250;2023-04-28T03:12:12;4.93;;;4.30;;
2201;SDS011;1107;48.654;9.250;2023-04-28T03:14:39;4.90;;;4.60;;
2201;SDS011;1107;48.654;9.250;2023-04-28T03:17:06;4.13;;;3.93;;
2201;SDS011;1107;48.654;9.250;2023-04-28T03:19:33;4.67;;;4.37;;
2201;SDS011;1107;48.654;9.250;2023-04-28T03:22:01;4.50;;;4.20;;
2201;SDS011;1107;48.654;9.250;2023-04-28T03:24:29;5.17;;;4.77;;
2201;SDS011;1107;48.654;9.250;2023-04-28T03:26:56;6.73;;;4.47;;
2201;SDS011;1107;48.654;9.250;2023-04-28T03:29:23;5.33;;;5.03;;
2201;SDS011;1107;48.654;9.250;2023-04-28T03:31:49;4.80;;;4.50;;
2201;SDS011;1107;48.654;9.250;2023-04-28T03:34:16;4.93;;;4.63;;
2201;SDS011;1107;48.654;9.250;2023-04-28T03:36:43;5.17;;;4.73;;
2201;SDS011;1107;48.654;9.250;2023-04-28T03:39:10;6.80;;;4.27;;
2201;SDS011;1107;48.654;9.250;2023-04-28T03:41:39;4.60;;;4.40;;
2201;SDS011;1107;48.654;9.250;2023-04-28T03:44:06;4.90;;;4.50;;
2201;SDS011;1107;48.654;9.250;2023-04-28T03:46:33;4.83;;;4.53;;
2201;SDS011;1107;48.654;9.250;2023-04-28T03:49:00;4.43;;;4.13;;
2201;SDS011;1107;48.654;9.250;2023-04-28T03:51:27;4.77;;;4.47;;
2201;SDS011;1107;48.654;9.250;2023-04-28T03:53:54;6.10;;;4.17;;
2201;SDS011;1107;48.654;9.250;2023-04-28T03:56:21;4.30;;;4.10;;
2201;SDS011;1107;48.654;9.250;2023-04-28T03:58:50;4.63;;;4.33;;
2201;SDS011;1107;48.654;9.250;2023-04-28T04:01:17;4.40;;;4.20;;
2201;SDS011;1107;48.654;9.250;2023-04-28T04:03:43;4.53;;;4.07;;
2201;SDS011;1107;48.654;9.250;2023-04-28T04:06:10;5.03;;;4.73;;
2201;SDS011;1107;48.654;9.250;2023-04-28T04:08:38;4.73;;;4.43;;
2201;SDS011;1107;48.654;9.250;2023-04-28T04:11:06;5.13;;;4.90;;
2201;SDS011;1107;48.654;9.250;2023-04-28T04:13:33;5.40;;;5.00;;
2201;SDS011;1107;48.654;9.250;2023-04-28T04:16:01;5.40;;;5.00;;
2201;SDS011;1107;48.654;9.250;2023-04-28T04:18:28;5.27;;;4.93;;
2201;SDS011;1107;48.654;9.250;2023-04-28T04:20:55;5.97;;;5.57;;
2201;SDS011;1107;48.654;9.250;2023-04-28T04:23:23;5.40;;;5.10;;
2201;SDS011;1107;48.654;9.250;2023-04-28T04:25:50;14.50;;;6.90;;
2201;SDS011;1107;48.654;9.250;2023-04-28T04:28:17;7.40;;;6.20;;
2201;SDS011;1107;48.654;9.250;2023-04-28T04:30:44;7.57;;;7.07;;
2201;SDS011;1107;48.654;9.250;2023-04-28T04:33:13;8.70;;;8.00;;
2201;SDS011;1107;48.654;9.250;2023-04-28T04:35:40;8.13;;;7.43;;
2201;SDS011;1107;48.654;9.250;2023-04-28T04:38:07;8.23;;;7.60;;
2201;SDS011;1107;48.654;9.250;2023-04-28T04:40:34;8.70;;;7.70;;
2201;SDS011;1107;48.654;9.250;2023-04-28T04:43:01;7.97;;;7.27;;
2201;SDS011;1107;48.654;9.250;2023-04-28T04:45:29;7.20;;;6.70;;
2201;SDS011;1107;48.654;9.250;2023-04-28T04:47:56;8.90;;;7.90;;
2201;SDS011;1107;48.654;9.250;2023-04-28T04:50:24;7.03;;;6.63;;
2201;SDS011;1107;48.654;9.250;2023-04-28T04:52:51;6.27;;;5.97;;
2201;SDS011;1107;48.654;9.250;2023-04-28T04:55:20;6.20;;;5.80;;
2201;SDS011;1107;48.654;9.250;2023-04-28T04:57:47;5.93;;;5.63;;
2201;SDS011;1107;48.654;9.250;2023-04-28T05:00:15;6.00;;;5.70;;
2201;SDS011;1107;48.654;9.250;2023-04-28T05:02:42;6.07;;;5.67;;
2201;SDS011;1107;48.654;9.250;2023-04-28T05:05:09;5.97;;;5.57;;
2201;SDS011;1107;48.654;9.250;2023-04-28T05:07:38;8.70;;;5.00;;
2201;SDS011;1107;48.654;9.250;2023-04-28T05:10:05;5.20;;;4.90;;
2201;SDS011;1107;48.654;9.250;2023-04-28T05:12:35;5.17;;;4.87;;
2201;SDS011;1107;48.654;9.250;2023-04-28T05:15:02;6.10;;;5.60;;
2201;SDS011;1107;48.654;9.250;2023-04-28T05:17:29;5.53;;;5.23;;
2201;SDS011;1107;48.654;9.250;2023-04-28T05:19:56;6.60;;;6.10;;
2201;SDS011;1107;48.654;9.250;2023-04-28T05:22:23;6.67;;;5.43;;
2201;SDS011;1107;48.654;9.250;2023-04-28T05:24:52;6.17;;;5.77;;
2201;SDS011;1107;48.654;9.250;2023-04-28T05:27:19;5.93;;;5.57;;
2201;SDS011;1107;48.654;9.250;2023-04-28T05:29:46;6.73;;;6.03;;
2201;SDS011;1107;48.654;9.250;2023-04-28T05:32:13;7.90;;;5.90;;
2201;SDS011;1107;48.654;9.250;2023-04-28T05:34:40;7.13;;;6.73;;
2201;SDS011;1107;48.654;9.250;2023-04-28T05:37:06;7.43;;;6.93;;
2201;SDS011;1107;48.654;9.250;2023-04-28T05:39:33;7.97;;;7.37;;
2201;SDS011;1107;48.654;9.250;2023-04-28T05:42:02;8.47;;;7.77;;
2201;SDS011;1107;48.654;9.250;2023-04-28T05:44:29;7.10;;;6.60;;
2201;SDS011;1107;48.654;9.250;2023-04-28T05:46:56;7.50;;;6.90;;
2201;SDS011;1107;48.654;9.250;2023-04-28T05:49:23;7.67;;;7.20;;
2201;SDS011;1107;48.654;9.250;2023-04-28T05:51:50;8.37;;;7.77;;
2201;SDS011;1107;48.654;9.250;2023-04-28T05:54:17;7.70;;;7.03;;
2201;SDS011;1107;48.654;9.250;2023-04-28T05:56:43;9.00;;;8.30;;
2201;SDS011;1107;48.654;9.250;2023-04-28T05:59:12;9.30;;;8.80;;
2201;SDS011;1107;48.654;9.250;2023-04-28T06:01:39;9.20;;;8.40;;
2201;SDS011;1107;48.654;9.250;2023-04-28T06:04:06;11.33;;;9.70;;
2201;SDS011;1107;48.654;9.250;2023-04-28T06:06:33;13.83;;;11.03;;
2201;SDS011;1107;48.654;9.250;2023-04-28T06:09:00;9.97;;;9.27;;
2201;SDS011;1107;48.654;9.250;2023-04-28T06:11:28;12.60;;;8.60;;
2201;SDS011;1107;48.654;9.250;2023-04-28T06:13:55;8.60;;;8.03;;
2201;SDS011;1107;48.654;9.250;2023-04-28T06:16:23;7.83;;;7.40;;
2201;SDS011;1107;48.654;9.250;2023-04-28T06:18:51;8.67;;;8.07;;
2201;SDS011;1107;48.654;9.250;2023-04-28T06:21:18;8.97;;;8.30;;
2201;SDS011;1107;48.654;9.250;2023-04-28T06:23:45;8.50;;;7.90;;
2201;SDS011;1107;48.654;9.250;2023-04-28T06:26:12;8.70;;;8.17;;
2201;SDS011;1107;48.654;9.250;2023-04-28T06:28:39;9.67;;;8.97;;
2201;SDS011;1107;48.654;9.250;2023-04-28T06:31:06;8.60;;;7.80;;
2201;SDS011;1107;48.654;9.250;2023-04-28T06:33:35;17.43;;;9.40;;
2201;SDS011;1107;48.654;9.250;2023-04-28T06:36:02;8.27;;;7.80;;
2201;SDS011;1107;48.654;9.250;2023-04-28T06:38:29;8.97;;;8.37;;
2201;SDS011;1107;48.654;9.250;2023-04-28T06:40:56;12.10;;;9.07;;
2201;SDS011;1107;48.654;9.250;2023-04-28T06:43:23;20.80;;;9.43;;
2201;SDS011;1107;48.654;9.250;2023-04-28T06:45:50;39.47;;;16.73;;
2201;SDS011;1107;48.654;9.250;2023-04-28T06:48:17;11.13;;;10.17;;
2201;SDS011;1107;48.654;9.250;2023-04-28T06:50:46;12.73;;;11.13;;
2201;SDS011;1107;48.654;9.250;2023-04-28T06:53:13;9.90;;;9.20;;
2201;SDS011;1107;48.654;9.250;2023-04-28T06:55:40;8.50;;;7.90;;
2201;SDS011;1107;48.654;9.250;2023-04-28T06:58:08;9.77;;;9.10;;
2201;SDS011;1107;48.654;9.250;2023-04-28T07:00:35;9.70;;;8.77;;
2201;SDS011;1107;48.654;9.250;2023-04-28T07:03:02;8.53;;;8.13;;
2201;SDS011;1107;48.654;9.250;2023-04-28T07:05:29;8.50;;;7.80;;
2201;SDS011;1107;48.654;9.250;2023-04-28T07:07:59;8.70;;;8.10;;
2201;SDS011;1107;48.654;9.250;2023-04-28T07:10:25;18.80;;;9.53;;
2201;SDS011;1107;48.654;9.250;2023-04-28T07:12:52;8.83;;;8.33;;
2201;SDS011;1107;48.654;9.250;2023-04-28T07:15:19;9.43;;;8.73;;
2201;SDS011;1107;48.654;9.250;2023-04-28T07:17:48;9.30;;;8.57;;
2201;SDS011;1107;48.654;9.250;2023-04-28T07:20:15;9.43;;;8.30;;
2201;SDS011;1107;48.654;9.250;2023-04-28T07:22:42;9.00;;;7.90;;
2201;SDS011;1107;48.654;9.250;2023-04-28T07:25:10;9.33;;;8.57;;
2201;SDS011;1107;48.654;9.250;2023-04-28T07:27:37;14.63;;;9.10;;
2201;SDS011;1107;48.654;9.250;2023-04-28T07:30:04;9.43;;;8.73;;
2201;SDS011;1107;48.654;9.250;2023-04-28T07:32:32;8.70;;;8.00;;
2201;SDS011;1107;48.654;9.250;2023-04-28T07:34:59;10.17;;;8.20;;
2201;SDS011;1107;48.654;9.250;2023-04-28T07:37:26;15.43;;;8.13;;
2201;SDS011;1107;48.654;9.250;2023-04-28T07:39:54;8.60;;;7.90;;
2201;SDS011;1107;48.654;9.250;2023-04-28T07:42:23;7.83;;;7.43;;
2201;SDS011;1107;48.654;9.250;2023-04-28T07:44:50;8.23;;;7.57;;
2201;SDS011;1107;48.654;9.250;2023-04-28T07:47:16;7.40;;;7.10;;
2201;SDS011;1107;48.654;9.250;2023-04-28T07:49:43;7.57;;;7.20;;
2201;SDS011;1107;48.654;9.250;2023-04-28T07:52:10;8.03;;;7.43;;
2201;SDS011;1107;48.654;9.250;2023-04-28T07:54:37;6.80;;;6.50;;
2201;SDS011;1107;48.654;9.250;2023-04-28T07:57:04;6.80;;;6.50;;
2201;SDS011;1107;48.654;9.250;2023-04-28T07:59:33;6.53;;;6.23;;
2201;SDS011;1107;48.654;9.250;2023-04-28T08:02:00;6.70;;;6.40;;
2201;SDS011;1107;48.654;9.250;2023-04-28T08:04:27;7.80;;;7.40;;
2201;SDS011;1107;48.654;9.250;2023-04-28T08:06:55;7.13;;;6.80;;
2201;SDS011;1107;48.654;9.250;2023-04-28T08:09:22;7.17;;;6.80;;
2201;SDS011;1107;48.654;9.250;2023-04-28T08:11:49;7.00;;;6.37;;
2201;SDS011;1107;48.654;9.250;2023-04-28T08:14:17;7.80;;;7.30;;
2201;SDS011;1107;48.654;9.250;2023-04-28T08:16:47;10.40;;;8.33;;
2201;SDS011;1107;48.654;9.250;2023-04-28T08:19:13;11.30;;;7.67;;
2201;SDS011;1107;48.654;9.250;2023-04-28T08:21:40;7.63;;;7.00;;
2201;SDS011;1107;48.654;9.250;2023-04-28T08:24:07;10.67;;;7.20;;
2201;SDS011;1107;48.654;9.250;2023-04-28T08:26:35;7.77;;;6.73;;
2201;SDS011;1107;48.654;9.250;2023-04-28T08:29:02;8.57;;;7.80;;
2201;SDS011;1107;48.654;9.250;2023-04-28T08:31:29;8.53;;;7.60;;
2201;SDS011;1107;48.654;9.250;2023-04-28T08:33:58;7.13;;;6.53;;
2201;SDS011;1107;48.654;9.250;2023-04-28T08:36:25;7.13;;;6.73;;
2201;SDS011;1107;48.654;9.250;2023-04-28T08:38:55;5.70;;;5.40;;
2201;SDS011;1107;48.654;9.250;2023-04-28T08:41:23;5.77;;;5.57;;
2201;SDS011;1107;48.654;9.250;2023-04-28T08:43:51;5.80;;;5.47;;
2201;SDS011;1107;48.654;9.250;2023-04-28T08:46:20;5.50;;;5.30;;
2201;SDS011;1107;48.654;9.250;2023-04-28T08:48:48;5.00;;;4.80;;
2201;SDS011;1107;48.654;9.250;2023-04-28T08:51:22;6.00;;;5.70;;
2201;SDS011;1107;48.654;9.250;2023-04-28T08:53:54;6.07;;;5.57;;
2201;SDS011;1107;48.654;9.250;2023-04-28T08:56:24;4.80;;;4.57;;
2201;SDS011;1107;48.654;9.250;2023-04-28T08:58:57;5.70;;;5.40;;
2201;SDS011;1107;48.654;9.250;2023-04-28T09:01:29;5.30;;;5.00;;
2201;SDS011;1107;48.654;9.250;2023-04-28T09:03:56;5.30;;;4.60;;
2201;SDS011;1107;48.654;9.250;2023-04-28T09:06:27;6.13;;;5.80;;
2201;SDS011;1107;48.654;9.250;2023-04-28T09:11:51;5.20;;;4.50;;
2201;SDS011;1107;48.654;9.250;2023-04-28T09:14:19;4.67;;;4.47;;
2201;SDS011;1107;48.654;9.250;2023-04-28T09:16:46;5.40;;;5.07;;
2201;SDS011;1107;48.654;9.250;2023-04-28T09:19:13;5.40;;;5.10;;
2201;SDS011;1107;48.654;9.250;2023-04-28T09:21:52;5.17;;;4.40;;
2201;SDS011;1107;48.654;9.250;2023-04-28T09:24:27;4.87;;;4.37;;
2201;SDS011;1107;48.654;9.250;2023-04-28T09:26:55;4.27;;;4.07;;
2201;SDS011;1107;48.654;9.250;2023-04-28T09:29:22;4.40;;;4.20;;
2201;SDS011;1107;48.654;9.250;2023-04-28T09:31:49;4.80;;;4.50;;
2201;SDS011;1107;48.654;9.250;2023-04-28T09:34:17;4.03;;;3.83;;
2201;SDS011;1107;48.654;9.250;2023-04-28T09:36:44;6.03;;;3.47;;
2201;SDS011;1107;48.654;9.250;2023-04-28T09:39:12;3.87;;;3.63;;
2201;SDS011;1107;48.654;9.250;2023-04-28T09:41:40;4.10;;;3.90;;
2201;SDS011;1107;48.654;9.250;2023-04-28T09:44:11;3.60;;;3.40;;
2201;SDS011;1107;48.654;9.250;2023-04-28T09:46:39;3.60;;;3.40;;
2201;SDS011;1107;48.654;9.250;2023-04-28T09:49:06;4.13;;;3.93;;
2201;SDS011;1107;48.654;9.250;2023-04-28T09:51:34;3.83;;;3.63;;
2201;SDS011;1107;48.654;9.250;2023-04-28T09:54:01;3.67;;;3.47;;
2201;SDS011;1107;48.654;9.250;2023-04-28T09:56:30;3.10;;;2.90;;
2201;SDS011;1107;48.654;9.250;2023-04-28T09:58:59;3.07;;;2.87;;
2201;SDS011;1107;48.654;9.250;2023-04-28T10:01:27;3.17;;;2.97;;
2201;SDS011;1107;48.654;9.250;2023-04-28T10:03:59;3.10;;;2.90;;
2201;SDS011;1107;48.654;9.250;2023-04-28T10:06:27;3.07;;;2.77;;
2201;SDS011;1107;48.654;9.250;2023-04-28T10:08:54;3.50;;;3.30;;
2201;SDS011;1107;48.654;9.250;2023-04-28T10:11:24;2.80;;;2.60;;
2201;SDS011;1107;48.654;9.250;2023-04-28T10:13:53;2.50;;;2.30;;
2201;SDS011;1107;48.654;9.250;2023-04-28T10:16:21;2.17;;;1.97;;
2201;SDS011;1107;48.654;9.250;2023-04-28T10:18:48;6.80;;;2.30;;
2201;SDS011;1107;48.654;9.250;2023-04-28T10:21:17;3.20;;;2.57;;
2201;SDS011;1107;48.654;9.250;2023-04-28T10:23:50;2.57;;;2.37;;
2201;SDS011;1107;48.654;9.250;2023-04-28T10:29:40;3.10;;;2.90;;
2201;SDS011;1107;48.654;9.250;2023-04-28T10:32:13;2.37;;;2.27;;
2201;SDS011;1107;48.654;9.250;2023-04-28T10:34:53;3.03;;;2.73;;
2201;SDS011;1107;48.654;9.250;2023-04-28T10:38:03;2.20;;;2.10;;
2201;SDS011;1107;48.654;9.250;2023-04-28T10:40:30;2.70;;;2.60;;
2201;SDS011;1107;48.654;9.250;2023-04-28T10:42:58;2.77;;;2.57;;
2201;SDS011;1107;48.654;9.250;2023-04-28T10:48:54;3.07;;;2.87;;
2201;SDS011;1107;48.654;9.250;2023-04-28T10:51:31;3.07;;;2.87;;
2201;SDS011;1107;48.654;9.250;2023-04-28T10:54:17;3.10;;;2.90;;
2201;SDS011;1107;48.654;9.250;2023-04-28T10:59:45;3.03;;;2.83;;
2201;SDS011;1107;48.654;9.250;2023-04-28T11:05:12;2.70;;;2.50;;
2201;SDS011;1107;48.654;9.250;2023-04-28T11:13:41;2.57;;;2.37;;
2201;SDS011;1107;48.654;9.250;2023-04-28T11:16:11;1.80;;;1.70;;
2201;SDS011;1107;48.654;9.250;2023-04-28T11:18:47;5.10;;;2.30;;
2201;SDS011;1107;48.654;9.250;2023-04-28T11:21:17;2.03;;;1.93;;
2201;SDS011;1107;48.654;9.250;2023-04-28T11:23:44;2.03;;;1.93;;
2201;SDS011;1107;48.654;9.250;2023-04-28T11:26:12;1.80;;;1.70;;
2201;SDS011;1107;48.654;9.250;2023-04-28T11:28:46;2.60;;;1.60;;
2201;SDS011;1107;48.654;9.250;2023-04-28T11:31:14;2.13;;;1.93;;
2201;SDS011;1107;48.654;9.250;2023-04-28T11:33:44;1.63;;;1.53;;
2201;SDS011;1107;48.654;9.250;2023-04-28T11:36:23;1.93;;;1.73;;
2201;SDS011;1107;48.654;9.250;2023-04-28T11:38:59;2.13;;;1.40;;
2201;SDS011;1107;48.654;9.250;2023-04-28T11:41:26;1.50;;;1.20;;
2201;SDS011;1107;48.654;9.250;2023-04-28T11:43:53;1.50;;;1.10;;
2201;SDS011;1107;48.654;9.250;2023-04-28T11:46:20;1.60;;;1.03;;
2201;SDS011;1107;48.654;9.250;2023-04-28T11:48:58;1.40;;;1.00;;
2201;SDS011;1107;48.654;9.250;2023-04-28T11:51:28;1.40;;;1.13;;
2201;SDS011;1107;48.654;9.250;2023-04-28T11:53:59;1.37;;;0.90;;
2201;SDS011;1107;48.654;9.250;2023-04-28T11:56:27;1.43;;;0.93;;
2201;SDS011;1107;48.654;9.250;2023-04-28T11:59:04;1.43;;;1.00;;
2201;SDS011;1107;48.654;9.250;2023-04-28T12:01:33;1.50;;;1.00;;
2201;SDS011;1107;48.654;9.250;2023-04-28T12:04:09;2.37;;;1.00;;
2201;SDS011;1107;48.654;9.250;2023-04-28T12:06:38;1.30;;;0.80;;
2201;SDS011;1107;48.654;9.250;2023-04-28T12:09:15;1.70;;;1.10;;
2201;SDS011;1107;48.654;9.250;2023-04-28T12:11:51;1.30;;;0.70;;
2201;SDS011;1107;48.654;9.250;2023-04-28T12:14:19;2.17;;;0.70;;
2201;SDS011;1107;48.654;9.250;2023-04-28T12:16:46;1.40;;;0.70;;
2201;SDS011;1107;48.654;9.250;2023-04-28T12:19:14;1.37;;;0.83;;
2201;SDS011;1107;48.654;9.250;2023-04-28T12:21:57;1.97;;;0.80;;
2201;SDS011;1107;48.654;9.250;2023-04-28T12:24:25;1.30;;;0.70;;
2201;SDS011;1107;48.654;9.250;2023-04-28T12:26:52;2.03;;;0.80;;
2201;SDS011;1107;48.654;9.250;2023-04-28T12:29:35;1.30;;;0.80;;
2201;SDS011;1107;48.654;9.250;2023-04-28T12:32:04;1.50;;;0.80;;
2201;SDS011;1107;48.654;9.250;2023-04-28T12:34:32;3.00;;;0.80;;
2201;SDS011;1107;48.654;9.250;2023-04-28T12:37:01;2.63;;;0.70;;
2201;SDS011;1107;48.654;9.250;2023-04-28T12:39:30;1.80;;;0.97;;
2201;SDS011;1107;48.654;9.250;2023-04-28T12:41:58;3.63;;;0.80;;
2201;SDS011;1107;48.654;9.250;2023-04-28T12:44:26;1.40;;;1.00;;
2201;SDS011;1107;48.654;9.250;2023-04-28T12:46:53;1.50;;;1.07;;
2201;SDS011;1107;48.654;9.250;2023-04-28T12:49:21;1.50;;;0.90;;
2201;SDS011;1107;48.654;9.250;2023-04-28T12:51:47;1.30;;;0.67;;
2201;SDS011;1107;48.654;9.250;2023-04-28T12:54:16;1.30;;;0.70;;
2201;SDS011;1107;48.654;9.250;2023-04-28T12:56:43;1.30;;;0.80;;
2201;SDS011;1107;48.654;9.250;2023-04-28T12:59:10;1.77;;;1.30;;
2201;SDS011;1107;48.654;9.250;2023-04-28T13:01:37;1.50;;;1.10;;
2201;SDS011;1107;48.654;9.250;2023-04-28T13:04:04;4.43;;;1.23;;
2201;SDS011;1107;48.654;9.250;2023-04-28T13:06:31;1.50;;;1.20;;
2201;SDS011;1107;48.654;9.250;2023-04-28T13:08:59;1.60;;;1.40;;
2201;SDS011;1107;48.654;9.250;2023-04-28T13:11:29;1.83;;;1.00;;
2201;SDS011;1107;48.654;9.250;2023-04-28T13:13:56;1.30;;;0.80;;
2201;SDS011;1107;48.654;9.250;2023-04-28T13:16:23;4.40;;;1.23;;
2201;SDS011;1107;48.654;9.250;2023-04-28T13:18:53;1.30;;;0.67;;
2201;SDS011;1107;48.654;9.250;2023-04-28T13:21:20;1.50;;;1.20;;
2201;SDS011;1107;48.654;9.250;2023-04-28T13:23:48;3.67;;;1.10;;
2201;SDS011;1107;48.654;9.250;2023-04-28T13:26:15;1.50;;;0.83;;
2201;SDS011;1107;48.654;9.250;2023-04-28T13:28:45;2.73;;;0.80;;
2201;SDS011;1107;48.654;9.250;2023-04-28T13:31:12;1.40;;;0.90;;
2201;SDS011;1107;48.654;9.250;2023-04-28T13:33:39;2.80;;;0.90;;
2201;SDS011;1107;48.654;9.250;2023-04-28T13:36:07;1.40;;;0.90;;
2201;SDS011;1107;48.654;9.250;2023-04-28T13:38:34;1.53;;;0.80;;
2201;SDS011;1107;48.654;9.250;2023-04-28T13:41:01;1.70;;;1.20;;
2201;SDS011;1107;48.654;9.250;2023-04-28T13:43:28;1.60;;;0.90;;
2201;SDS011;1107;48.654;9.250;2023-04-28T13:45:57;1.50;;;0.93;;
2201;SDS011;1107;48.654;9.250;2023-04-28T13:48:24;1.40;;;0.90;;
2201;SDS011;1107;48.654;9.250;2023-04-28T13:50:52;1.40;;;0.90;;
2201;SDS011;1107;48.654;9.250;2023-04-28T13:53:19;1.30;;;0.73;;
2201;SDS011;1107;48.654;9.250;2023-04-28T13:55:47;1.40;;;1.10;;
2201;SDS011;1107;48.654;9.250;2023-04-28T13:58:17;1.60;;;1.00;;
2201;SDS011;1107;48.654;9.250;2023-04-28T14:00:46;1.40;;;0.90;;
2201;SDS011;1107;48.654;9.250;2023-04-28T14:03:14;1.47;;;1.07;;
2201;SDS011;1107;48.654;9.250;2023-04-28T14:05:42;1.40;;;0.80;;
2201;SDS011;1107;48.654;9.250;2023-04-28T14:08:09;1.40;;;0.83;;
2201;SDS011;1107;48.654;9.250;2023-04-28T14:10:36;1.50;;;0.87;;
2201;SDS011;1107;48.654;9.250;2023-04-28T14:13:03;1.40;;;0.97;;
2201;SDS011;1107;48.654;9.250;2023-04-28T14:15:30;1.40;;;0.97;;
2201;SDS011;1107;48.654;9.250;2023-04-28T14:17:57;1.60;;;1.00;;
2201;SDS011;1107;48.654;9.250;2023-04-28T14:20:26;1.60;;;1.20;;
2201;SDS011;1107;48.654;9.250;2023-04-28T14:22:53;1.50;;;1.10;;
2201;SDS011;1107;48.654;9.250;2023-04-28T14:25:20;1.50;;;1.10;;
2201;SDS011;1107;48.654;9.250;2023-04-28T14:27:47;3.80;;;0.90;;
2201;SDS011;1107;48.654;9.250;2023-04-28T14:30:15;3.57;;;1.00;;
2201;SDS011;1107;48.654;9.250;2023-04-28T14:32:42;1.40;;;0.97;;
2201;SDS011;1107;48.654;9.250;2023-04-28T14:35:09;1.33;;;0.90;;
2201;SDS011;1107;48.654;9.250;2023-04-28T14:37:38;1.77;;;1.17;;
2201;SDS011;1107;48.654;9.250;2023-04-28T14:40:06;2.17;;;1.10;;
2201;SDS011;1107;48.654;9.250;2023-04-28T14:42:34;1.53;;;1.00;;
2201;SDS011;1107;48.654;9.250;2023-04-28T14:45:02;3.20;;;1.10;;
2201;SDS011;1107;48.654;9.250;2023-04-28T14:47:29;1.50;;;1.00;;
2201;SDS011;1107;48.654;9.250;2023-04-28T14:49:57;1.70;;;0.90;;
2201;SDS011;1107;48.654;9.250;2023-04-28T14:52:24;2.50;;;0.90;;
2201;SDS011;1107;48.654;9.250;2023-04-28T14:54:54;1.80;;;1.00;;
2201;SDS011;1107;48.654;9.250;2023-04-28T14:57:22;1.47;;;1.00;;
2201;SDS011;1107;48.654;9.250;2023-04-28T14:59:49;1.57;;;0.93;;
2201;SDS011;1107;48.654;9.250;2023-04-28T15:02:17;1.40;;;0.90;;
2201;SDS011;1107;48.654;9.250;2023-04-28T15:04:45;1.30;;;0.80;;
2201;SDS011;1107;48.654;9.250;2023-04-28T15:07:12;1.57;;;0.87;;
2201;SDS011;1107;48.654;9.250;2023-04-28T15:09:39;1.43;;;1.03;;
2201;SDS011;1107;48.654;9.250;2023-04-28T15:12:09;1.40;;;0.90;;
2201;SDS011;1107;48.654;9.250;2023-04-28T15:14:35;2.37;;;1.00;;
2201;SDS011;1107;48.654;9.250;2023-04-28T15:17:02;1.53;;;0.90;;
2201;SDS011;1107;48.654;9.250;2023-04-28T15:19:29;1.80;;;1.30;;
2201;SDS011;1107;48.654;9.250;2023-04-28T15:21:57;1.50;;;1.10;;
2201;SDS011;1107;48.654;9.250;2023-04-28T15:24:24;1.80;;;1.70;;
2201;SDS011;1107;48.654;9.250;2023-04-28T15:26:51;1.70;;;1.07;;
2201;SDS011;1107;48.654;9.250;2023-04-28T15:29:20;2.30;;;0.93;;
2201;SDS011;1107;48.654;9.250;2023-04-28T15:31:48;1.40;;;0.90;;
2201;SDS011;1107;48.654;9.250;2023-04-28T15:34:15;1.40;;;0.80;;
2201;SDS011;1107;48.654;9.250;2023-04-28T15:36:42;1.30;;;0.77;;
2201;SDS011;1107;48.654;9.250;2023-04-28T15:39:09;1.60;;;0.80;;
2201;SDS011;1107;48.654;9.250;2023-04-28T15:41:36;1.30;;;0.77;;